sensor_id;sensor_type;location;lat;lon;timestamp;temperature;humidity
63017;DHT22;50274;45.640;11.756;2022-12-29T00:02:15;7.60;72.40
63017;DHT22;50274;45.640;11.756;2022-12-29T00:04:41;7.60;72.40
63017;DHT22;50274;45.640;11.756;2022-12-29T00:07:07;7.60;72.50
63017;DHT22;50274;45.640;11.756;2022-12-29T00:09:34;7.60;72.50
63017;DHT22;50274;45.640;11.756;2022-12-29T00:12:00;7.60;72.50
63017;DHT22;50274;45.640;11.756;2022-12-29T00:14:27;7.60;72.60
63017;DHT22;50274;45.640;11.756;2022-12-29T00:17:12;7.60;72.50
63017;DHT22;50274;45.640;11.756;2022-12-29T00:19:38;7.60;72.50
63017;DHT22;50274;45.640;11.756;2022-12-29T00:22:22;7.60;72.60
63017;DHT22;50274;45.640;11.756;2022-12-29T00:25:11;7.60;72.60
63017;DHT22;50274;45.640;11.756;2022-12-29T00:27:56;7.60;72.70
63017;DHT22;50274;45.640;11.756;2022-12-29T00:30:40;7.60;72.60
63017;DHT22;50274;45.640;11.756;2022-12-29T00:33:32;7.70;72.60
63017;DHT22;50274;45.640;11.756;2022-12-29T00:36:21;7.70;72.60
63017;DHT22;50274;45.640;11.756;2022-12-29T00:38:53;7.70;72.50
63017;DHT22;50274;45.640;11.756;2022-12-29T00:41:39;7.70;72.50
63017;DHT22;50274;45.640;11.756;2022-12-29T00:44:23;7.70;72.60
63017;DHT22;50274;45.640;11.756;2022-12-29T00:46:49;7.70;72.50
63017;DHT22;50274;45.640;11.756;2022-12-29T00:49:15;7.80;72.50
63017;DHT22;50274;45.640;11.756;2022-12-29T00:51:58;7.80;72.60
63017;DHT22;50274;45.640;11.756;2022-12-29T00:54:24;7.70;72.50
63017;DHT22;50274;45.640;11.756;2022-12-29T00:56:51;7.70;72.60
63017;DHT22;50274;45.640;11.756;2022-12-29T00:59:18;7.70;72.70
63017;DHT22;50274;45.640;11.756;2022-12-29T01:01:45;7.70;72.80
63017;DHT22;50274;45.640;11.756;2022-12-29T01:04:11;7.70;72.80
63017;DHT22;50274;45.640;11.756;2022-12-29T01:06:39;7.70;72.80
63017;DHT22;50274;45.640;11.756;2022-12-29T01:09:06;7.70;72.90
63017;DHT22;50274;45.640;11.756;2022-12-29T01:11:51;7.70;72.90
63017;DHT22;50274;45.640;11.756;2022-12-29T01:14:18;7.70;72.90
63017;DHT22;50274;45.640;11.756;2022-12-29T01:16:44;7.70;72.90
63017;DHT22;50274;45.640;11.756;2022-12-29T01:19:10;7.70;73.00
63017;DHT22;50274;45.640;11.756;2022-12-29T01:21:36;7.70;73.00
63017;DHT22;50274;45.640;11.756;2022-12-29T01:24:02;7.70;73.00
63017;DHT22;50274;45.640;11.756;2022-12-29T01:26:28;7.70;73.10
63017;DHT22;50274;45.640;11.756;2022-12-29T01:28:54;7.70;73.10
63017;DHT22;50274;45.640;11.756;2022-12-29T01:31:20;7.70;73.20
63017;DHT22;50274;45.640;11.756;2022-12-29T01:33:45;7.70;73.10
63017;DHT22;50274;45.640;11.756;2022-12-29T01:36:13;7.70;73.10
63017;DHT22;50274;45.640;11.756;2022-12-29T01:38:40;7.70;73.10
63017;DHT22;50274;45.640;11.756;2022-12-29T01:41:08;7.70;73.10
63017;DHT22;50274;45.640;11.756;2022-12-29T01:43:53;7.70;73.10
63017;DHT22;50274;45.640;11.756;2022-12-29T01:49:16;7.70;73.00
63017;DHT22;50274;45.640;11.756;2022-12-29T01:54:46;7.70;73.10
63017;DHT22;50274;45.640;11.756;2022-12-29T01:57:32;7.70;73.10
63017;DHT22;50274;45.640;11.756;2022-12-29T02:00:10;7.60;73.10
63017;DHT22;50274;45.640;11.756;2022-12-29T02:02:37;7.60;73.10
63017;DHT22;50274;45.640;11.756;2022-12-29T02:05:13;7.60;73.20
63017;DHT22;50274;45.640;11.756;2022-12-29T02:07:39;7.50;73.20
63017;DHT22;50274;45.640;11.756;2022-12-29T02:10:06;7.60;73.30
63017;DHT22;50274;45.640;11.756;2022-12-29T02:12:33;7.60;73.30
63017;DHT22;50274;45.640;11.756;2022-12-29T02:15:00;7.50;73.30
63017;DHT22;50274;45.640;11.756;2022-12-29T02:17:50;7.50;73.30
63017;DHT22;50274;45.640;11.756;2022-12-29T02:23:36;7.50;73.40
63017;DHT22;50274;45.640;11.756;2022-12-29T02:29:17;7.60;73.50
63017;DHT22;50274;45.640;11.756;2022-12-29T02:31:59;7.60;73.40
63017;DHT22;50274;45.640;11.756;2022-12-29T02:37:24;7.60;73.40
63017;DHT22;50274;45.640;11.756;2022-12-29T02:40:10;7.60;73.30
63017;DHT22;50274;45.640;11.756;2022-12-29T02:42:43;7.70;73.30
63017;DHT22;50274;45.640;11.756;2022-12-29T02:51:03;7.60;73.30
63017;DHT22;50274;45.640;11.756;2022-12-29T02:53:32;7.70;73.30
63017;DHT22;50274;45.640;11.756;2022-12-29T02:56:17;7.60;73.30
63017;DHT22;50274;45.640;11.756;2022-12-29T02:58:43;7.60;73.30
63017;DHT22;50274;45.640;11.756;2022-12-29T03:09:43;7.50;73.40
63017;DHT22;50274;45.640;11.756;2022-12-29T03:12:31;7.50;73.40
63017;DHT22;50274;45.640;11.756;2022-12-29T03:15:24;7.40;73.40
63017;DHT22;50274;45.640;11.756;2022-12-29T03:18:44;7.40;73.50
63017;DHT22;50274;45.640;11.756;2022-12-29T03:21:32;7.30;73.60
63017;DHT22;50274;45.640;11.756;2022-12-29T03:24:24;7.30;73.60
63017;DHT22;50274;45.640;11.756;2022-12-29T03:26:53;7.30;73.70
63017;DHT22;50274;45.640;11.756;2022-12-29T03:29:20;7.30;73.70
63017;DHT22;50274;45.640;11.756;2022-12-29T03:31:48;7.30;73.70
63017;DHT22;50274;45.640;11.756;2022-12-29T03:34:15;7.20;73.80
63017;DHT22;50274;45.640;11.756;2022-12-29T03:36:53;7.10;73.90
63017;DHT22;50274;45.640;11.756;2022-12-29T03:39:22;7.10;73.90
63017;DHT22;50274;45.640;11.756;2022-12-29T03:41:52;7.10;74.00
63017;DHT22;50274;45.640;11.756;2022-12-29T03:44:20;7.10;74.00
63017;DHT22;50274;45.640;11.756;2022-12-29T03:46:46;7.10;74.10
63017;DHT22;50274;45.640;11.756;2022-12-29T03:49:12;7.00;74.20
63017;DHT22;50274;45.640;11.756;2022-12-29T03:51:38;7.10;74.20
63017;DHT22;50274;45.640;11.756;2022-12-29T03:54:04;7.10;74.20
63017;DHT22;50274;45.640;11.756;2022-12-29T03:56:29;7.00;74.30
63017;DHT22;50274;45.640;11.756;2022-12-29T03:58:55;7.10;74.30
63017;DHT22;50274;45.640;11.756;2022-12-29T04:01:21;7.00;74.40
63017;DHT22;50274;45.640;11.756;2022-12-29T04:03:47;7.10;74.30
63017;DHT22;50274;45.640;11.756;2022-12-29T04:06:12;7.10;74.40
63017;DHT22;50274;45.640;11.756;2022-12-29T04:08:38;7.10;74.40
63017;DHT22;50274;45.640;11.756;2022-12-29T04:11:04;7.20;74.50
63017;DHT22;50274;45.640;11.756;2022-12-29T04:13:30;7.10;74.50
63017;DHT22;50274;45.640;11.756;2022-12-29T04:15:56;7.10;74.50
63017;DHT22;50274;45.640;11.756;2022-12-29T04:18:22;7.10;74.50
63017;DHT22;50274;45.640;11.756;2022-12-29T04:20:48;7.20;74.60
63017;DHT22;50274;45.640;11.756;2022-12-29T04:23:26;7.20;74.60
63017;DHT22;50274;45.640;11.756;2022-12-29T04:25:52;7.20;74.60
63017;DHT22;50274;45.640;11.756;2022-12-29T04:28:18;7.20;74.70
63017;DHT22;50274;45.640;11.756;2022-12-29T04:30:44;7.20;74.90
63017;DHT22;50274;45.640;11.756;2022-12-29T04:33:10;7.20;74.70
63017;DHT22;50274;45.640;11.756;2022-12-29T04:35:36;7.20;74.80
63017;DHT22;50274;45.640;11.756;2022-12-29T04:38:02;7.20;75.10
63017;DHT22;50274;45.640;11.756;2022-12-29T04:40:29;7.20;74.90
63017;DHT22;50274;45.640;11.756;2022-12-29T04:42:54;7.20;75.00
63017;DHT22;50274;45.640;11.756;2022-12-29T04:45:20;7.20;75.00
63017;DHT22;50274;45.640;11.756;2022-12-29T04:47:46;7.30;75.00
63017;DHT22;50274;45.640;11.756;2022-12-29T04:50:12;7.20;75.00
63017;DHT22;50274;45.640;11.756;2022-12-29T04:52:38;7.20;75.10
63017;DHT22;50274;45.640;11.756;2022-12-29T04:55:05;7.20;75.10
63017;DHT22;50274;45.640;11.756;2022-12-29T04:57:31;7.30;75.10
63017;DHT22;50274;45.640;11.756;2022-12-29T04:59:57;7.30;75.00
63017;DHT22;50274;45.640;11.756;2022-12-29T05:02:23;7.20;75.00
63017;DHT22;50274;45.640;11.756;2022-12-29T05:04:49;7.20;75.10
63017;DHT22;50274;45.640;11.756;2022-12-29T05:07:15;7.30;75.10
63017;DHT22;50274;45.640;11.756;2022-12-29T05:09:41;7.30;75.10
63017;DHT22;50274;45.640;11.756;2022-12-29T05:12:07;7.20;75.10
63017;DHT22;50274;45.640;11.756;2022-12-29T05:14:33;7.20;75.20
63017;DHT22;50274;45.640;11.756;2022-12-29T05:16:59;7.20;75.20
63017;DHT22;50274;45.640;11.756;2022-12-29T05:19:24;7.20;75.20
63017;DHT22;50274;45.640;11.756;2022-12-29T05:21:50;7.20;75.40
63017;DHT22;50274;45.640;11.756;2022-12-29T05:24:16;7.20;75.30
63017;DHT22;50274;45.640;11.756;2022-12-29T05:26:42;7.20;75.30
63017;DHT22;50274;45.640;11.756;2022-12-29T05:29:08;7.20;75.30
63017;DHT22;50274;45.640;11.756;2022-12-29T05:31:33;7.10;75.30
63017;DHT22;50274;45.640;11.756;2022-12-29T05:34:01;7.10;75.40
63017;DHT22;50274;45.640;11.756;2022-12-29T05:36:27;7.10;75.40
63017;DHT22;50274;45.640;11.756;2022-12-29T05:38:53;7.10;75.40
63017;DHT22;50274;45.640;11.756;2022-12-29T05:41:19;7.10;75.60
63017;DHT22;50274;45.640;11.756;2022-12-29T05:43:45;7.10;75.60
63017;DHT22;50274;45.640;11.756;2022-12-29T05:46:11;7.10;75.60
63017;DHT22;50274;45.640;11.756;2022-12-29T05:48:36;7.10;75.60
63017;DHT22;50274;45.640;11.756;2022-12-29T05:51:02;7.10;75.60
63017;DHT22;50274;45.640;11.756;2022-12-29T05:53:28;7.00;75.60
63017;DHT22;50274;45.640;11.756;2022-12-29T05:55:54;7.00;75.60
63017;DHT22;50274;45.640;11.756;2022-12-29T05:58:20;7.00;75.60
63017;DHT22;50274;45.640;11.756;2022-12-29T06:00:46;7.00;75.70
63017;DHT22;50274;45.640;11.756;2022-12-29T06:03:12;7.00;75.70
63017;DHT22;50274;45.640;11.756;2022-12-29T06:05:38;6.90;75.80
63017;DHT22;50274;45.640;11.756;2022-12-29T06:08:04;6.90;75.80
63017;DHT22;50274;45.640;11.756;2022-12-29T06:10:30;6.90;75.80
63017;DHT22;50274;45.640;11.756;2022-12-29T06:12:55;7.00;75.80
63017;DHT22;50274;45.640;11.756;2022-12-29T06:15:21;7.00;75.80
63017;DHT22;50274;45.640;11.756;2022-12-29T06:17:47;7.00;75.80
63017;DHT22;50274;45.640;11.756;2022-12-29T06:20:13;7.00;75.80
63017;DHT22;50274;45.640;11.756;2022-12-29T06:22:39;7.00;75.80
63017;DHT22;50274;45.640;11.756;2022-12-29T06:25:05;7.00;75.90
63017;DHT22;50274;45.640;11.756;2022-12-29T06:27:31;7.00;76.00
63017;DHT22;50274;45.640;11.756;2022-12-29T06:29:57;7.00;75.90
63017;DHT22;50274;45.640;11.756;2022-12-29T06:32:23;7.00;75.90
63017;DHT22;50274;45.640;11.756;2022-12-29T06:34:49;7.00;76.00
63017;DHT22;50274;45.640;11.756;2022-12-29T06:37:15;7.00;75.90
63017;DHT22;50274;45.640;11.756;2022-12-29T06:39:40;7.00;76.00
63017;DHT22;50274;45.640;11.756;2022-12-29T06:42:09;7.00;76.00
63017;DHT22;50274;45.640;11.756;2022-12-29T06:44:35;7.00;76.00
63017;DHT22;50274;45.640;11.756;2022-12-29T06:47:01;7.00;75.90
63017;DHT22;50274;45.640;11.756;2022-12-29T06:49:27;7.00;76.10
63017;DHT22;50274;45.640;11.756;2022-12-29T06:51:53;7.00;76.00
63017;DHT22;50274;45.640;11.756;2022-12-29T06:54:19;7.00;76.00
63017;DHT22;50274;45.640;11.756;2022-12-29T06:56:45;7.10;76.00
63017;DHT22;50274;45.640;11.756;2022-12-29T06:59:11;7.10;76.00
63017;DHT22;50274;45.640;11.756;2022-12-29T07:01:36;7.10;76.00
63017;DHT22;50274;45.640;11.756;2022-12-29T07:04:03;7.10;76.00
63017;DHT22;50274;45.640;11.756;2022-12-29T07:06:29;7.10;76.00
63017;DHT22;50274;45.640;11.756;2022-12-29T07:08:55;7.10;76.10
63017;DHT22;50274;45.640;11.756;2022-12-29T07:11:23;7.10;76.10
63017;DHT22;50274;45.640;11.756;2022-12-29T07:13:49;7.20;76.10
63017;DHT22;50274;45.640;11.756;2022-12-29T07:16:15;7.20;76.00
63017;DHT22;50274;45.640;11.756;2022-12-29T07:18:40;7.10;76.10
63017;DHT22;50274;45.640;11.756;2022-12-29T07:21:06;7.10;76.20
63017;DHT22;50274;45.640;11.756;2022-12-29T07:23:32;7.10;76.20
63017;DHT22;50274;45.640;11.756;2022-12-29T07:26:06;7.10;76.30
63017;DHT22;50274;45.640;11.756;2022-12-29T07:28:34;7.10;76.30
63017;DHT22;50274;45.640;11.756;2022-12-29T07:31:00;7.20;76.30
63017;DHT22;50274;45.640;11.756;2022-12-29T07:33:29;7.20;76.30
63017;DHT22;50274;45.640;11.756;2022-12-29T07:35:55;7.20;76.40
63017;DHT22;50274;45.640;11.756;2022-12-29T07:38:21;7.20;76.50
63017;DHT22;50274;45.640;11.756;2022-12-29T07:40:46;7.30;76.40
63017;DHT22;50274;45.640;11.756;2022-12-29T07:43:12;7.30;76.40
63017;DHT22;50274;45.640;11.756;2022-12-29T07:45:38;7.30;76.40
63017;DHT22;50274;45.640;11.756;2022-12-29T07:48:05;7.30;76.40
63017;DHT22;50274;45.640;11.756;2022-12-29T07:50:36;7.30;76.50
63017;DHT22;50274;45.640;11.756;2022-12-29T07:53:02;7.30;76.50
63017;DHT22;50274;45.640;11.756;2022-12-29T07:55:29;7.30;76.60
63017;DHT22;50274;45.640;11.756;2022-12-29T07:57:55;7.40;76.60
63017;DHT22;50274;45.640;11.756;2022-12-29T08:00:22;7.50;76.50
63017;DHT22;50274;45.640;11.756;2022-12-29T08:02:48;7.50;76.60
63017;DHT22;50274;45.640;11.756;2022-12-29T08:05:15;7.60;76.50
63017;DHT22;50274;45.640;11.756;2022-12-29T08:07:45;7.60;76.50
63017;DHT22;50274;45.640;11.756;2022-12-29T08:10:12;7.60;76.30
63017;DHT22;50274;45.640;11.756;2022-12-29T08:12:38;7.70;76.30
63017;DHT22;50274;45.640;11.756;2022-12-29T08:15:05;7.70;76.30
63017;DHT22;50274;45.640;11.756;2022-12-29T08:17:31;7.70;76.40
63017;DHT22;50274;45.640;11.756;2022-12-29T08:19:58;7.80;76.30
63017;DHT22;50274;45.640;11.756;2022-12-29T08:22:24;7.90;76.20
63017;DHT22;50274;45.640;11.756;2022-12-29T08:24:50;7.80;76.20
63017;DHT22;50274;45.640;11.756;2022-12-29T08:27:17;7.90;76.20
63017;DHT22;50274;45.640;11.756;2022-12-29T08:29:43;7.90;76.20
63017;DHT22;50274;45.640;11.756;2022-12-29T08:32:09;7.90;76.20
63017;DHT22;50274;45.640;11.756;2022-12-29T08:34:35;7.90;76.30
63017;DHT22;50274;45.640;11.756;2022-12-29T08:37:01;7.90;76.40
63017;DHT22;50274;45.640;11.756;2022-12-29T08:39:27;8.00;76.40
63017;DHT22;50274;45.640;11.756;2022-12-29T08:41:53;8.00;76.30
63017;DHT22;50274;45.640;11.756;2022-12-29T08:44:19;8.00;76.30
63017;DHT22;50274;45.640;11.756;2022-12-29T08:46:44;8.00;76.40
63017;DHT22;50274;45.640;11.756;2022-12-29T08:49:10;8.10;76.20
63017;DHT22;50274;45.640;11.756;2022-12-29T08:51:36;8.10;76.10
63017;DHT22;50274;45.640;11.756;2022-12-29T08:54:02;8.10;76.00
63017;DHT22;50274;45.640;11.756;2022-12-29T08:56:28;8.10;76.10
63017;DHT22;50274;45.640;11.756;2022-12-29T08:58:54;8.20;76.00
63017;DHT22;50274;45.640;11.756;2022-12-29T09:01:21;8.20;76.10
63017;DHT22;50274;45.640;11.756;2022-12-29T09:03:48;8.20;75.90
63017;DHT22;50274;45.640;11.756;2022-12-29T09:06:15;8.20;75.90
63017;DHT22;50274;45.640;11.756;2022-12-29T09:08:42;8.20;75.80
63017;DHT22;50274;45.640;11.756;2022-12-29T09:11:09;8.30;75.70
63017;DHT22;50274;45.640;11.756;2022-12-29T09:13:36;8.30;75.70
63017;DHT22;50274;45.640;11.756;2022-12-29T09:16:02;8.30;75.70
63017;DHT22;50274;45.640;11.756;2022-12-29T09:18:28;8.30;75.70
63017;DHT22;50274;45.640;11.756;2022-12-29T09:21:02;8.40;75.60
63017;DHT22;50274;45.640;11.756;2022-12-29T09:23:28;8.50;75.50
63017;DHT22;50274;45.640;11.756;2022-12-29T09:25:55;8.50;75.40
63017;DHT22;50274;45.640;11.756;2022-12-29T09:28:24;8.60;75.20
63017;DHT22;50274;45.640;11.756;2022-12-29T09:30:50;8.70;75.10
63017;DHT22;50274;45.640;11.756;2022-12-29T09:33:17;8.70;75.00
63017;DHT22;50274;45.640;11.756;2022-12-29T09:35:43;8.80;74.90
63017;DHT22;50274;45.640;11.756;2022-12-29T09:38:10;8.80;74.90
63017;DHT22;50274;45.640;11.756;2022-12-29T09:40:38;8.80;74.80
63017;DHT22;50274;45.640;11.756;2022-12-29T09:45:59;8.90;74.70
63017;DHT22;50274;45.640;11.756;2022-12-29T09:48:37;8.90;74.60
63017;DHT22;50274;45.640;11.756;2022-12-29T09:51:10;8.90;74.50
63017;DHT22;50274;45.640;11.756;2022-12-29T09:53:45;9.00;74.50
63017;DHT22;50274;45.640;11.756;2022-12-29T09:56:19;9.00;74.30
63017;DHT22;50274;45.640;11.756;2022-12-29T09:59:15;9.00;74.40
63017;DHT22;50274;45.640;11.756;2022-12-29T10:02:04;9.00;74.30
63017;DHT22;50274;45.640;11.756;2022-12-29T10:04:32;9.00;74.20
63017;DHT22;50274;45.640;11.756;2022-12-29T10:07:17;9.00;74.20
63017;DHT22;50274;45.640;11.756;2022-12-29T10:18:47;9.10;74.00
63017;DHT22;50274;45.640;11.756;2022-12-29T10:23:52;9.10;74.00
63017;DHT22;50274;45.640;11.756;2022-12-29T10:26:28;9.10;74.00
63017;DHT22;50274;45.640;11.756;2022-12-29T10:29:04;9.10;73.90
63017;DHT22;50274;45.640;11.756;2022-12-29T10:31:42;9.20;73.80
63017;DHT22;50274;45.640;11.756;2022-12-29T10:34:21;9.20;73.70
63017;DHT22;50274;45.640;11.756;2022-12-29T10:36:49;9.20;73.70
63017;DHT22;50274;45.640;11.756;2022-12-29T10:44:31;9.20;73.70
63017;DHT22;50274;45.640;11.756;2022-12-29T10:47:07;9.20;73.70
63017;DHT22;50274;45.640;11.756;2022-12-29T10:49:40;9.20;73.60
63017;DHT22;50274;45.640;11.756;2022-12-29T10:52:08;9.30;73.60
63017;DHT22;50274;45.640;11.756;2022-12-29T10:54:59;9.30;73.60
63017;DHT22;50274;45.640;11.756;2022-12-29T10:57:33;9.30;73.60
63017;DHT22;50274;45.640;11.756;2022-12-29T11:00:00;9.40;73.40
63017;DHT22;50274;45.640;11.756;2022-12-29T11:08:14;9.70;72.80
63017;DHT22;50274;45.640;11.756;2022-12-29T11:10:44;9.70;72.70
63017;DHT22;50274;45.640;11.756;2022-12-29T11:13:17;9.70;72.60
63017;DHT22;50274;45.640;11.756;2022-12-29T11:15:48;9.70;72.50
63017;DHT22;50274;45.640;11.756;2022-12-29T11:18:26;9.80;72.40
63017;DHT22;50274;45.640;11.756;2022-12-29T11:20:55;9.90;72.20
63017;DHT22;50274;45.640;11.756;2022-12-29T11:23:25;10.10;71.90
63017;DHT22;50274;45.640;11.756;2022-12-29T11:28:40;10.30;71.30
63017;DHT22;50274;45.640;11.756;2022-12-29T11:31:07;10.60;71.20
63017;DHT22;50274;45.640;11.756;2022-12-29T11:33:38;11.00;70.70
63017;DHT22;50274;45.640;11.756;2022-12-29T11:36:16;11.60;69.60
63017;DHT22;50274;45.640;11.756;2022-12-29T11:38:47;12.00;68.50
63017;DHT22;50274;45.640;11.756;2022-12-29T11:41:23;12.10;67.40
63017;DHT22;50274;45.640;11.756;2022-12-29T11:43:49;12.10;67.10
63017;DHT22;50274;45.640;11.756;2022-12-29T11:46:23;12.00;66.90
63017;DHT22;50274;45.640;11.756;2022-12-29T11:48:50;12.00;66.60
63017;DHT22;50274;45.640;11.756;2022-12-29T11:51:27;11.90;66.20
63017;DHT22;50274;45.640;11.756;2022-12-29T11:53:57;11.80;66.80
63017;DHT22;50274;45.640;11.756;2022-12-29T11:56:35;11.70;66.60
63017;DHT22;50274;45.640;11.756;2022-12-29T12:01:50;11.50;67.00
63017;DHT22;50274;45.640;11.756;2022-12-29T12:04:18;11.40;67.00
63017;DHT22;50274;45.640;11.756;2022-12-29T12:09:32;11.30;66.90
63017;DHT22;50274;45.640;11.756;2022-12-29T12:12:02;11.60;67.20
63017;DHT22;50274;45.640;11.756;2022-12-29T12:14:34;11.70;66.30
63017;DHT22;50274;45.640;11.756;2022-12-29T12:17:06;11.80;66.20
63017;DHT22;50274;45.640;11.756;2022-12-29T12:19:43;11.70;66.20
63017;DHT22;50274;45.640;11.756;2022-12-29T12:22:51;11.60;66.40
63017;DHT22;50274;45.640;11.756;2022-12-29T12:25:24;11.50;66.70
63017;DHT22;50274;45.640;11.756;2022-12-29T12:28:00;11.30;67.10
63017;DHT22;50274;45.640;11.756;2022-12-29T12:30:33;11.20;67.10
63017;DHT22;50274;45.640;11.756;2022-12-29T12:42:07;10.90;68.30
63017;DHT22;50274;45.640;11.756;2022-12-29T12:55:46;10.70;69.10
63017;DHT22;50274;45.640;11.756;2022-12-29T12:58:47;10.70;69.10
63017;DHT22;50274;45.640;11.756;2022-12-29T13:01:40;10.70;69.20
63017;DHT22;50274;45.640;11.756;2022-12-29T13:23:37;10.50;69.90
63017;DHT22;50274;45.640;11.756;2022-12-29T13:31:29;10.40;70.00
63017;DHT22;50274;45.640;11.756;2022-12-29T13:37:10;10.40;70.00
63017;DHT22;50274;45.640;11.756;2022-12-29T13:39:49;10.30;70.00
63017;DHT22;50274;45.640;11.756;2022-12-29T13:42:18;10.30;70.10
63017;DHT22;50274;45.640;11.756;2022-12-29T13:44:51;10.30;70.20
63017;DHT22;50274;45.640;11.756;2022-12-29T13:47:33;10.30;70.00
63017;DHT22;50274;45.640;11.756;2022-12-29T13:50:02;10.30;70.00
63017;DHT22;50274;45.640;11.756;2022-12-29T13:52:37;10.30;70.10
63017;DHT22;50274;45.640;11.756;2022-12-29T13:58:27;10.30;70.40
63017;DHT22;50274;45.640;11.756;2022-12-29T14:03:47;10.30;70.70
63017;DHT22;50274;45.640;11.756;2022-12-29T14:06:23;10.20;70.70
63017;DHT22;50274;45.640;11.756;2022-12-29T14:08:55;10.20;70.80
63017;DHT22;50274;45.640;11.756;2022-12-29T14:11:35;10.20;70.90
63017;DHT22;50274;45.640;11.756;2022-12-29T14:14:22;10.20;70.80
63017;DHT22;50274;45.640;11.756;2022-12-29T14:16:49;10.20;70.90
63017;DHT22;50274;45.640;11.756;2022-12-29T14:19:19;10.20;70.90
63017;DHT22;50274;45.640;11.756;2022-12-29T14:21:58;10.20;71.00
63017;DHT22;50274;45.640;11.756;2022-12-29T14:37:34;10.20;71.30
63017;DHT22;50274;45.640;11.756;2022-12-29T14:40:17;10.10;71.30
63017;DHT22;50274;45.640;11.756;2022-12-29T14:42:44;10.10;71.40
63017;DHT22;50274;45.640;11.756;2022-12-29T14:47:50;10.10;71.50
63017;DHT22;50274;45.640;11.756;2022-12-29T14:50:23;10.10;71.50
63017;DHT22;50274;45.640;11.756;2022-12-29T14:57:47;10.10;71.70
63017;DHT22;50274;45.640;11.756;2022-12-29T15:00:24;10.10;71.80
63017;DHT22;50274;45.640;11.756;2022-12-29T15:03:04;10.10;71.80
63017;DHT22;50274;45.640;11.756;2022-12-29T15:05:40;10.10;71.90
63017;DHT22;50274;45.640;11.756;2022-12-29T15:08:07;10.10;71.90
63017;DHT22;50274;45.640;11.756;2022-12-29T15:10:41;10.10;72.00
63017;DHT22;50274;45.640;11.756;2022-12-29T15:13:17;10.10;72.10
63017;DHT22;50274;45.640;11.756;2022-12-29T15:15:43;10.10;72.10
63017;DHT22;50274;45.640;11.756;2022-12-29T15:18:26;10.00;72.00
63017;DHT22;50274;45.640;11.756;2022-12-29T15:21:01;10.00;72.10
63017;DHT22;50274;45.640;11.756;2022-12-29T15:23:30;10.00;72.20
63017;DHT22;50274;45.640;11.756;2022-12-29T15:26:07;10.00;72.20
63017;DHT22;50274;45.640;11.756;2022-12-29T15:28:45;10.00;72.30
63017;DHT22;50274;45.640;11.756;2022-12-29T15:31:14;10.00;72.40
63017;DHT22;50274;45.640;11.756;2022-12-29T15:33:42;10.00;72.40
63017;DHT22;50274;45.640;11.756;2022-12-29T15:36:15;10.00;72.60
63017;DHT22;50274;45.640;11.756;2022-12-29T15:38:44;10.00;72.60
63017;DHT22;50274;45.640;11.756;2022-12-29T15:44:23;10.00;72.80
63017;DHT22;50274;45.640;11.756;2022-12-29T15:46:50;10.00;72.80
63017;DHT22;50274;45.640;11.756;2022-12-29T15:49:16;9.90;72.90
63017;DHT22;50274;45.640;11.756;2022-12-29T15:51:42;9.90;73.00
63017;DHT22;50274;45.640;11.756;2022-12-29T15:54:17;9.90;73.10
63017;DHT22;50274;45.640;11.756;2022-12-29T15:56:44;9.90;73.20
63017;DHT22;50274;45.640;11.756;2022-12-29T15:59:45;9.90;73.20
63017;DHT22;50274;45.640;11.756;2022-12-29T16:02:11;9.90;73.30
63017;DHT22;50274;45.640;11.756;2022-12-29T16:04:37;9.90;73.40
63017;DHT22;50274;45.640;11.756;2022-12-29T16:07:19;9.90;73.50
63017;DHT22;50274;45.640;11.756;2022-12-29T16:09:47;9.90;73.50
63017;DHT22;50274;45.640;11.756;2022-12-29T16:12:21;9.90;73.60
63017;DHT22;50274;45.640;11.756;2022-12-29T16:15:06;9.90;73.60
63017;DHT22;50274;45.640;11.756;2022-12-29T16:17:47;9.90;73.60
63017;DHT22;50274;45.640;11.756;2022-12-29T16:20:23;9.90;73.70
63017;DHT22;50274;45.640;11.756;2022-12-29T16:22:53;9.80;73.80
63017;DHT22;50274;45.640;11.756;2022-12-29T16:25:29;9.80;73.90
63017;DHT22;50274;45.640;11.756;2022-12-29T16:27:58;9.80;74.00
63017;DHT22;50274;45.640;11.756;2022-12-29T16:30:27;9.80;74.00
63017;DHT22;50274;45.640;11.756;2022-12-29T16:32:56;9.80;74.10
63017;DHT22;50274;45.640;11.756;2022-12-29T16:35:23;9.80;74.20
63017;DHT22;50274;45.640;11.756;2022-12-29T16:38:12;9.80;74.20
63017;DHT22;50274;45.640;11.756;2022-12-29T16:40:53;9.70;74.40
63017;DHT22;50274;45.640;11.756;2022-12-29T16:46:15;9.80;74.50
63017;DHT22;50274;45.640;11.756;2022-12-29T16:48:54;9.70;74.70
63017;DHT22;50274;45.640;11.756;2022-12-29T16:51:34;9.70;74.80
63017;DHT22;50274;45.640;11.756;2022-12-29T16:54:01;9.70;74.90
63017;DHT22;50274;45.640;11.756;2022-12-29T16:56:33;9.70;74.90
63017;DHT22;50274;45.640;11.756;2022-12-29T16:59:08;9.70;74.90
63017;DHT22;50274;45.640;11.756;2022-12-29T17:01:42;9.70;75.00
63017;DHT22;50274;45.640;11.756;2022-12-29T17:04:11;9.70;75.00
63017;DHT22;50274;45.640;11.756;2022-12-29T17:06:37;9.70;75.00
63017;DHT22;50274;45.640;11.756;2022-12-29T17:09:18;9.70;75.00
63017;DHT22;50274;45.640;11.756;2022-12-29T17:11:47;9.70;75.10
63017;DHT22;50274;45.640;11.756;2022-12-29T17:20:04;9.60;75.30
63017;DHT22;50274;45.640;11.756;2022-12-29T17:22:31;9.70;75.50
63017;DHT22;50274;45.640;11.756;2022-12-29T17:24:59;9.60;75.50
63017;DHT22;50274;45.640;11.756;2022-12-29T17:30:16;9.60;75.60
63017;DHT22;50274;45.640;11.756;2022-12-29T17:32:45;9.60;75.70
63017;DHT22;50274;45.640;11.756;2022-12-29T17:35:15;9.60;75.70
63017;DHT22;50274;45.640;11.756;2022-12-29T17:37:41;9.60;75.80
63017;DHT22;50274;45.640;11.756;2022-12-29T17:40:12;9.60;75.70
63017;DHT22;50274;45.640;11.756;2022-12-29T17:42:43;9.50;75.90
63017;DHT22;50274;45.640;11.756;2022-12-29T17:45:34;9.60;76.00
63017;DHT22;50274;45.640;11.756;2022-12-29T17:47:59;9.50;76.00
63017;DHT22;50274;45.640;11.756;2022-12-29T17:50:27;9.50;76.10
63017;DHT22;50274;45.640;11.756;2022-12-29T17:53:03;9.50;76.10
63017;DHT22;50274;45.640;11.756;2022-12-29T17:55:30;9.50;76.20
63017;DHT22;50274;45.640;11.756;2022-12-29T17:57:56;9.50;76.30
63017;DHT22;50274;45.640;11.756;2022-12-29T18:00:27;9.50;76.30
63017;DHT22;50274;45.640;11.756;2022-12-29T18:02:54;9.50;76.30
63017;DHT22;50274;45.640;11.756;2022-12-29T18:05:24;9.50;76.50
63017;DHT22;50274;45.640;11.756;2022-12-29T18:07:52;9.50;76.50
63017;DHT22;50274;45.640;11.756;2022-12-29T18:10:19;9.50;76.50
63017;DHT22;50274;45.640;11.756;2022-12-29T18:12:47;9.50;76.50
63017;DHT22;50274;45.640;11.756;2022-12-29T18:15:24;9.50;76.60
63017;DHT22;50274;45.640;11.756;2022-12-29T18:18:17;9.50;76.60
63017;DHT22;50274;45.640;11.756;2022-12-29T18:20:44;9.50;76.70
63017;DHT22;50274;45.640;11.756;2022-12-29T18:23:22;9.50;76.70